sensor_id;sensor_type;location;lat;lon;timestamp;temperature;humidity
8114;DHT22;4099;52.684;9.918;2022-12-07T00:03:57;2.90;99.90
8114;DHT22;4099;52.684;9.918;2022-12-07T00:09:06;3.10;99.90
8114;DHT22;4099;52.684;9.918;2022-12-07T00:14:12;3.10;99.90
8114;DHT22;4099;52.684;9.918;2022-12-07T00:19:15;3.20;99.90
8114;DHT22;4099;52.684;9.918;2022-12-07T00:24:17;3.20;99.90
8114;DHT22;4099;52.684;9.918;2022-12-07T00:29:21;3.30;99.90
8114;DHT22;4099;52.684;9.918;2022-12-07T00:34:23;3.30;99.90
8114;DHT22;4099;52.684;9.918;2022-12-07T00:39:25;3.30;99.90
8114;DHT22;4099;52.684;9.918;2022-12-07T00:44:31;3.30;99.90
8114;DHT22;4099;52.684;9.918;2022-12-07T00:49:34;3.40;99.90
8114;DHT22;4099;52.684;9.918;2022-12-07T00:54:36;3.40;99.90
8114;DHT22;4099;52.684;9.918;2022-12-07T00:59:40;3.50;99.90
8114;DHT22;4099;52.684;9.918;2022-12-07T01:04:41;3.50;99.90
8114;DHT22;4099;52.684;9.918;2022-12-07T01:09:43;3.60;99.90
8114;DHT22;4099;52.684;9.918;2022-12-07T01:14:47;3.60;99.90
8114;DHT22;4099;52.684;9.918;2022-12-07T01:19:50;3.60;99.90
8114;DHT22;4099;52.684;9.918;2022-12-07T01:24:52;3.60;99.90
8114;DHT22;4099;52.684;9.918;2022-12-07T01:29:55;3.60;99.90
8114;DHT22;4099;52.684;9.918;2022-12-07T01:34:57;3.70;99.90
8114;DHT22;4099;52.684;9.918;2022-12-07T01:39:59;3.70;99.90
8114;DHT22;4099;52.684;9.918;2022-12-07T01:50:49;3.80;99.90
8114;DHT22;4099;52.684;9.918;2022-12-07T01:55:52;3.80;99.90
8114;DHT22;4099;52.684;9.918;2022-12-07T02:00:54;3.80;99.90
8114;DHT22;4099;52.684;9.918;2022-12-07T02:05:59;3.80;99.90
8114;DHT22;4099;52.684;9.918;2022-12-07T02:11:02;3.90;99.90
8114;DHT22;4099;52.684;9.918;2022-12-07T02:16:15;3.80;99.90
8114;DHT22;4099;52.684;9.918;2022-12-07T02:21:24;3.80;99.90
8114;DHT22;4099;52.684;9.918;2022-12-07T02:32:08;3.80;99.90
8114;DHT22;4099;52.684;9.918;2022-12-07T02:37:24;3.70;99.90
8114;DHT22;4099;52.684;9.918;2022-12-07T02:42:32;3.60;99.90
8114;DHT22;4099;52.684;9.918;2022-12-07T02:47:37;3.50;99.90
8114;DHT22;4099;52.684;9.918;2022-12-07T02:52:40;3.40;99.90
8114;DHT22;4099;52.684;9.918;2022-12-07T02:57:53;3.20;99.90
8114;DHT22;4099;52.684;9.918;2022-12-07T03:03:00;3.10;99.90
8114;DHT22;4099;52.684;9.918;2022-12-07T03:08:11;3.00;99.90
8114;DHT22;4099;52.684;9.918;2022-12-07T03:13:22;2.90;99.90
8114;DHT22;4099;52.684;9.918;2022-12-07T03:18:30;2.80;99.90
8114;DHT22;4099;52.684;9.918;2022-12-07T03:23:34;2.90;99.90
8114;DHT22;4099;52.684;9.918;2022-12-07T03:28:39;2.80;99.90
8114;DHT22;4099;52.684;9.918;2022-12-07T03:33:48;2.80;99.90
8114;DHT22;4099;52.684;9.918;2022-12-07T03:38:56;2.80;99.90
8114;DHT22;4099;52.684;9.918;2022-12-07T03:43:59;2.80;99.90
8114;DHT22;4099;52.684;9.918;2022-12-07T03:49:08;2.70;99.90
8114;DHT22;4099;52.684;9.918;2022-12-07T03:54:17;2.70;99.90
8114;DHT22;4099;52.684;9.918;2022-12-07T03:59:21;2.60;99.90
8114;DHT22;4099;52.684;9.918;2022-12-07T04:04:25;2.60;99.90
8114;DHT22;4099;52.684;9.918;2022-12-07T04:09:27;2.70;99.90
8114;DHT22;4099;52.684;9.918;2022-12-07T04:14:29;2.70;99.90
8114;DHT22;4099;52.684;9.918;2022-12-07T04:19:33;2.70;99.90
8114;DHT22;4099;52.684;9.918;2022-12-07T04:24:35;2.70;99.90
8114;DHT22;4099;52.684;9.918;2022-12-07T04:29:37;2.70;99.90
8114;DHT22;4099;52.684;9.918;2022-12-07T04:34:40;2.70;99.90
8114;DHT22;4099;52.684;9.918;2022-12-07T04:39:42;2.70;99.90
8114;DHT22;4099;52.684;9.918;2022-12-07T04:44:45;2.70;99.90
8114;DHT22;4099;52.684;9.918;2022-12-07T04:49:48;2.70;99.90
8114;DHT22;4099;52.684;9.918;2022-12-07T04:54:50;2.70;99.90
8114;DHT22;4099;52.684;9.918;2022-12-07T04:59:52;2.70;99.90
8114;DHT22;4099;52.684;9.918;2022-12-07T05:04:55;2.70;99.90
8114;DHT22;4099;52.684;9.918;2022-12-07T05:09:57;2.70;99.90
8114;DHT22;4099;52.684;9.918;2022-12-07T05:15:00;2.70;99.90
8114;DHT22;4099;52.684;9.918;2022-12-07T05:20:05;2.70;99.90
8114;DHT22;4099;52.684;9.918;2022-12-07T05:25:08;2.70;99.90
8114;DHT22;4099;52.684;9.918;2022-12-07T05:30:12;2.70;99.90
8114;DHT22;4099;52.684;9.918;2022-12-07T05:35:15;2.80;99.90
8114;DHT22;4099;52.684;9.918;2022-12-07T05:40:17;2.80;99.90
8114;DHT22;4099;52.684;9.918;2022-12-07T05:45:19;2.80;99.90
8114;DHT22;4099;52.684;9.918;2022-12-07T05:50:23;2.80;99.90
8114;DHT22;4099;52.684;9.918;2022-12-07T05:55:34;2.80;99.90
8114;DHT22;4099;52.684;9.918;2022-12-07T06:00:36;2.80;99.90
8114;DHT22;4099;52.684;9.918;2022-12-07T06:05:39;2.90;99.90
8114;DHT22;4099;52.684;9.918;2022-12-07T06:10:42;2.90;99.90
8114;DHT22;4099;52.684;9.918;2022-12-07T06:15:44;2.90;99.90
8114;DHT22;4099;52.684;9.918;2022-12-07T06:20:47;2.90;99.90
8114;DHT22;4099;52.684;9.918;2022-12-07T06:25:49;2.90;99.90
8114;DHT22;4099;52.684;9.918;2022-12-07T06:30:57;2.90;99.90
8114;DHT22;4099;52.684;9.918;2022-12-07T06:36:00;3.00;99.90
8114;DHT22;4099;52.684;9.918;2022-12-07T06:41:02;2.90;99.90
8114;DHT22;4099;52.684;9.918;2022-12-07T06:46:04;2.90;99.90
8114;DHT22;4099;52.684;9.918;2022-12-07T06:51:07;2.90;99.90
8114;DHT22;4099;52.684;9.918;2022-12-07T06:56:09;3.00;99.90
8114;DHT22;4099;52.684;9.918;2022-12-07T07:01:12;2.90;99.90
8114;DHT22;4099;52.684;9.918;2022-12-07T07:06:16;2.90;99.90
8114;DHT22;4099;52.684;9.918;2022-12-07T07:11:18;2.90;99.90
8114;DHT22;4099;52.684;9.918;2022-12-07T07:16:20;2.90;99.90
8114;DHT22;4099;52.684;9.918;2022-12-07T07:21:23;2.90;99.90
8114;DHT22;4099;52.684;9.918;2022-12-07T07:26:25;2.90;99.90
8114;DHT22;4099;52.684;9.918;2022-12-07T07:31:27;2.90;99.90
8114;DHT22;4099;52.684;9.918;2022-12-07T07:36:30;2.90;99.90
8114;DHT22;4099;52.684;9.918;2022-12-07T07:41:32;2.80;99.90
8114;DHT22;4099;52.684;9.918;2022-12-07T07:46:35;2.80;99.90
8114;DHT22;4099;52.684;9.918;2022-12-07T07:51:38;2.90;99.90
8114;DHT22;4099;52.684;9.918;2022-12-07T07:56:41;2.80;99.90
8114;DHT22;4099;52.684;9.918;2022-12-07T08:01:42;2.80;99.90
8114;DHT22;4099;52.684;9.918;2022-12-07T08:06:46;2.80;99.90
8114;DHT22;4099;52.684;9.918;2022-12-07T08:11:47;2.70;99.90
8114;DHT22;4099;52.684;9.918;2022-12-07T08:16:50;2.70;99.90
8114;DHT22;4099;52.684;9.918;2022-12-07T08:21:53;2.60;99.90
8114;DHT22;4099;52.684;9.918;2022-12-07T08:26:56;2.50;99.90
8114;DHT22;4099;52.684;9.918;2022-12-07T08:31:58;2.50;99.90
8114;DHT22;4099;52.684;9.918;2022-12-07T08:37:03;2.50;99.90
8114;DHT22;4099;52.684;9.918;2022-12-07T08:42:05;2.50;99.90
8114;DHT22;4099;52.684;9.918;2022-12-07T08:47:07;2.70;99.90
8114;DHT22;4099;52.684;9.918;2022-12-07T08:52:11;2.80;99.90
8114;DHT22;4099;52.684;9.918;2022-12-07T08:57:13;2.90;99.90
8114;DHT22;4099;52.684;9.918;2022-12-07T09:02:15;3.00;99.90
8114;DHT22;4099;52.684;9.918;2022-12-07T09:07:19;3.10;99.90
8114;DHT22;4099;52.684;9.918;2022-12-07T09:12:21;3.20;99.90
8114;DHT22;4099;52.684;9.918;2022-12-07T09:17:23;3.30;99.90
8114;DHT22;4099;52.684;9.918;2022-12-07T09:22:28;3.20;99.90
8114;DHT22;4099;52.684;9.918;2022-12-07T09:27:30;3.20;99.90
8114;DHT22;4099;52.684;9.918;2022-12-07T09:32:34;3.20;99.90
8114;DHT22;4099;52.684;9.918;2022-12-07T09:37:37;3.30;99.90
8114;DHT22;4099;52.684;9.918;2022-12-07T09:42:41;3.30;99.90
8114;DHT22;4099;52.684;9.918;2022-12-07T09:47:45;3.30;99.90
8114;DHT22;4099;52.684;9.918;2022-12-07T09:52:49;3.40;99.90
8114;DHT22;4099;52.684;9.918;2022-12-07T09:57:52;3.50;99.90
8114;DHT22;4099;52.684;9.918;2022-12-07T10:02:56;3.70;99.90
8114;DHT22;4099;52.684;9.918;2022-12-07T10:07:59;3.80;99.90
8114;DHT22;4099;52.684;9.918;2022-12-07T10:13:03;3.80;99.90
8114;DHT22;4099;52.684;9.918;2022-12-07T10:18:18;3.80;99.90
8114;DHT22;4099;52.684;9.918;2022-12-07T10:23:21;3.80;99.90
8114;DHT22;4099;52.684;9.918;2022-12-07T10:28:27;3.70;99.90
8114;DHT22;4099;52.684;9.918;2022-12-07T10:33:38;3.70;99.90
8114;DHT22;4099;52.684;9.918;2022-12-07T10:38:45;3.80;99.90
8114;DHT22;4099;52.684;9.918;2022-12-07T10:43:52;3.80;99.90
8114;DHT22;4099;52.684;9.918;2022-12-07T10:48:59;3.90;99.90
8114;DHT22;4099;52.684;9.918;2022-12-07T10:54:12;3.90;99.90
8114;DHT22;4099;52.684;9.918;2022-12-07T10:59:29;3.90;99.90
8114;DHT22;4099;52.684;9.918;2022-12-07T11:04:39;3.90;99.90
8114;DHT22;4099;52.684;9.918;2022-12-07T11:10:07;4.00;99.90
8114;DHT22;4099;52.684;9.918;2022-12-07T11:15:17;4.00;99.90
8114;DHT22;4099;52.684;9.918;2022-12-07T11:20:34;4.20;99.90
8114;DHT22;4099;52.684;9.918;2022-12-07T11:25:49;4.30;99.90
8114;DHT22;4099;52.684;9.918;2022-12-07T11:30:59;4.30;99.90
8114;DHT22;4099;52.684;9.918;2022-12-07T11:36:22;4.30;99.90
8114;DHT22;4099;52.684;9.918;2022-12-07T11:41:36;4.30;99.90
8114;DHT22;4099;52.684;9.918;2022-12-07T11:46:46;4.60;99.90
8114;DHT22;4099;52.684;9.918;2022-12-07T11:51:51;4.70;99.90
8114;DHT22;4099;52.684;9.918;2022-12-07T11:57:01;4.80;99.90
8114;DHT22;4099;52.684;9.918;2022-12-07T12:02:13;4.70;99.90
8114;DHT22;4099;52.684;9.918;2022-12-07T12:07:17;4.50;99.90
8114;DHT22;4099;52.684;9.918;2022-12-07T12:12:46;4.40;99.90
8114;DHT22;4099;52.684;9.918;2022-12-07T12:18:17;4.30;99.90
8114;DHT22;4099;52.684;9.918;2022-12-07T12:23:25;4.30;99.90
8114;DHT22;4099;52.684;9.918;2022-12-07T12:28:34;4.30;99.90
8114;DHT22;4099;52.684;9.918;2022-12-07T12:33:44;4.40;99.90
8114;DHT22;4099;52.684;9.918;2022-12-07T12:38:52;4.60;99.90
8114;DHT22;4099;52.684;9.918;2022-12-07T12:49:43;4.80;99.90
8114;DHT22;4099;52.684;9.918;2022-12-07T12:54:59;4.80;99.90
8114;DHT22;4099;52.684;9.918;2022-12-07T13:00:16;4.70;99.90
8114;DHT22;4099;52.684;9.918;2022-12-07T13:05:21;4.90;99.90
8114;DHT22;4099;52.684;9.918;2022-12-07T13:10:42;4.80;99.90
8114;DHT22;4099;52.684;9.918;2022-12-07T13:15:46;4.70;99.90
8114;DHT22;4099;52.684;9.918;2022-12-07T13:20:55;4.60;99.90
8114;DHT22;4099;52.684;9.918;2022-12-07T13:26:05;4.70;99.90
8114;DHT22;4099;52.684;9.918;2022-12-07T13:31:28;4.70;99.90
8114;DHT22;4099;52.684;9.918;2022-12-07T13:36:37;4.80;99.90
8114;DHT22;4099;52.684;9.918;2022-12-07T13:41:44;4.70;99.90
8114;DHT22;4099;52.684;9.918;2022-12-07T13:46:59;4.60;99.90
8114;DHT22;4099;52.684;9.918;2022-12-07T13:52:15;4.60;99.90
8114;DHT22;4099;52.684;9.918;2022-12-07T13:57:18;4.60;99.90
8114;DHT22;4099;52.684;9.918;2022-12-07T14:02:24;4.60;99.90
8114;DHT22;4099;52.684;9.918;2022-12-07T14:07:28;4.60;99.90
8114;DHT22;4099;52.684;9.918;2022-12-07T14:12:31;4.50;99.90
8114;DHT22;4099;52.684;9.918;2022-12-07T14:17:33;4.40;99.90
8114;DHT22;4099;52.684;9.918;2022-12-07T14:22:38;4.20;99.90
8114;DHT22;4099;52.684;9.918;2022-12-07T14:27:48;4.20;99.90
8114;DHT22;4099;52.684;9.918;2022-12-07T14:32:53;3.60;99.90
8114;DHT22;4099;52.684;9.918;2022-12-07T14:37:57;2.70;99.90
8114;DHT22;4099;52.684;9.918;2022-12-07T14:43:02;2.20;99.90
8114;DHT22;4099;52.684;9.918;2022-12-07T14:48:05;1.90;99.90
8114;DHT22;4099;52.684;9.918;2022-12-07T14:53:12;1.70;99.90
8114;DHT22;4099;52.684;9.918;2022-12-07T14:58:17;1.40;99.90
8114;DHT22;4099;52.684;9.918;2022-12-07T15:03:19;1.40;99.90
8114;DHT22;4099;52.684;9.918;2022-12-07T15:08:22;1.30;99.90
8114;DHT22;4099;52.684;9.918;2022-12-07T15:13:24;1.30;99.90
8114;DHT22;4099;52.684;9.918;2022-12-07T15:18:44;1.20;99.90
8114;DHT22;4099;52.684;9.918;2022-12-07T15:23:47;1.00;99.90
8114;DHT22;4099;52.684;9.918;2022-12-07T15:28:49;0.90;99.90
8114;DHT22;4099;52.684;9.918;2022-12-07T15:33:52;0.90;99.90
8114;DHT22;4099;52.684;9.918;2022-12-07T15:38:56;0.90;99.90
8114;DHT22;4099;52.684;9.918;2022-12-07T15:43:57;1.10;99.90
8114;DHT22;4099;52.684;9.918;2022-12-07T15:49:18;1.20;99.90
8114;DHT22;4099;52.684;9.918;2022-12-07T15:54:24;1.30;99.90
8114;DHT22;4099;52.684;9.918;2022-12-07T15:59:27;1.20;99.90
8114;DHT22;4099;52.684;9.918;2022-12-07T16:04:31;1.30;99.90
8114;DHT22;4099;52.684;9.918;2022-12-07T16:09:34;1.10;99.90
8114;DHT22;4099;52.684;9.918;2022-12-07T16:14:38;1.00;99.90
8114;DHT22;4099;52.684;9.918;2022-12-07T16:19:40;0.90;99.90
8114;DHT22;4099;52.684;9.918;2022-12-07T16:24:44;0.80;99.90
8114;DHT22;4099;52.684;9.918;2022-12-07T16:29:46;0.80;99.90
8114;DHT22;4099;52.684;9.918;2022-12-07T16:34:48;0.80;99.90
8114;DHT22;4099;52.684;9.918;2022-12-07T16:39:51;0.70;99.90
8114;DHT22;4099;52.684;9.918;2022-12-07T16:44:53;0.80;99.90
8114;DHT22;4099;52.684;9.918;2022-12-07T16:49:55;0.70;99.90
8114;DHT22;4099;52.684;9.918;2022-12-07T16:54:58;0.80;99.90
8114;DHT22;4099;52.684;9.918;2022-12-07T17:00:01;0.80;99.90
8114;DHT22;4099;52.684;9.918;2022-12-07T17:05:04;0.80;99.90
8114;DHT22;4099;52.684;9.918;2022-12-07T17:10:08;0.80;99.90
8114;DHT22;4099;52.684;9.918;2022-12-07T17:15:11;0.90;99.90
8114;DHT22;4099;52.684;9.918;2022-12-07T17:20:22;0.90;99.90
8114;DHT22;4099;52.684;9.918;2022-12-07T17:25:27;0.90;99.90
8114;DHT22;4099;52.684;9.918;2022-12-07T17:30:29;0.90;99.90
8114;DHT22;4099;52.684;9.918;2022-12-07T17:35:31;1.00;99.90
8114;DHT22;4099;52.684;9.918;2022-12-07T17:40:34;1.00;99.90
8114;DHT22;4099;52.684;9.918;2022-12-07T17:45:36;0.90;99.90
8114;DHT22;4099;52.684;9.918;2022-12-07T17:50:39;1.00;99.90
8114;DHT22;4099;52.684;9.918;2022-12-07T17:56:00;1.00;99.90
8114;DHT22;4099;52.684;9.918;2022-12-07T18:01:07;1.10;99.90
8114;DHT22;4099;52.684;9.918;2022-12-07T18:06:09;1.10;99.90
8114;DHT22;4099;52.684;9.918;2022-12-07T18:11:12;1.10;99.90
8114;DHT22;4099;52.684;9.918;2022-12-07T18:16:17;1.10;99.90
8114;DHT22;4099;52.684;9.918;2022-12-07T18:21:21;1.10;99.90
8114;DHT22;4099;52.684;9.918;2022-12-07T18:26:25;1.10;99.90
8114;DHT22;4099;52.684;9.918;2022-12-07T18:31:27;1.20;99.90
8114;DHT22;4099;52.684;9.918;2022-12-07T18:36:29;1.20;99.90
8114;DHT22;4099;52.684;9.918;2022-12-07T18:41:32;1.30;99.90
8114;DHT22;4099;52.684;9.918;2022-12-07T18:46:34;1.20;99.90
8114;DHT22;4099;52.684;9.918;2022-12-07T18:51:37;1.30;99.90
8114;DHT22;4099;52.684;9.918;2022-12-07T18:56:40;1.10;99.90
8114;DHT22;4099;52.684;9.918;2022-12-07T19:01:45;1.10;99.90
8114;DHT22;4099;52.684;9.918;2022-12-07T19:06:48;1.20;99.90
8114;DHT22;4099;52.684;9.918;2022-12-07T19:11:51;1.30;99.90
8114;DHT22;4099;52.684;9.918;2022-12-07T19:16:57;1.30;99.90
8114;DHT22;4099;52.684;9.918;2022-12-07T19:21:59;1.30;99.90
8114;DHT22;4099;52.684;9.918;2022-12-07T19:27:03;1.30;99.90
8114;DHT22;4099;52.684;9.918;2022-12-07T19:32:06;1.40;99.90
8114;DHT22;4099;52.684;9.918;2022-12-07T19:37:09;1.40;99.90
8114;DHT22;4099;52.684;9.918;2022-12-07T19:42:13;1.50;99.90
8114;DHT22;4099;52.684;9.918;2022-12-07T19:47:16;1.50;99.90
8114;DHT22;4099;52.684;9.918;2022-12-07T19:52:18;1.60;99.90
8114;DHT22;4099;52.684;9.918;2022-12-07T19:57:21;1.50;99.90
8114;DHT22;4099;52.684;9.918;2022-12-07T20:02:23;1.50;99.90
8114;DHT22;4099;52.684;9.918;2022-12-07T20:07:25;1.40;99.90
8114;DHT22;4099;52.684;9.918;2022-12-07T20:12:28;1.50;99.90
8114;DHT22;4099;52.684;9.918;2022-12-07T20:17:59;1.50;99.90
8114;DHT22;4099;52.684;9.918;2022-12-07T20:23:01;1.60;99.90
8114;DHT22;4099;52.684;9.918;2022-12-07T20:28:04;1.60;99.90
8114;DHT22;4099;52.684;9.918;2022-12-07T20:33:06;1.60;99.90
8114;DHT22;4099;52.684;9.918;2022-12-07T20:38:09;1.70;99.90
8114;DHT22;4099;52.684;9.918;2022-12-07T20:43:13;1.70;99.90
8114;DHT22;4099;52.684;9.918;2022-12-07T20:48:15;1.70;99.90
8114;DHT22;4099;52.684;9.918;2022-12-07T20:53:17;1.70;99.90
8114;DHT22;4099;52.684;9.918;2022-12-07T20:58:20;1.80;99.90
8114;DHT22;4099;52.684;9.918;2022-12-07T21:03:22;1.80;99.90
8114;DHT22;4099;52.684;9.918;2022-12-07T21:08:24;1.70;99.90
8114;DHT22;4099;52.684;9.918;2022-12-07T21:13:27;1.70;99.90
8114;DHT22;4099;52.684;9.918;2022-12-07T21:18:29;1.70;99.90
8114;DHT22;4099;52.684;9.918;2022-12-07T21:23:31;1.70;99.90
8114;DHT22;4099;52.684;9.918;2022-12-07T21:28:34;1.70;99.90
8114;DHT22;4099;52.684;9.918;2022-12-07T21:33:39;1.60;99.90
8114;DHT22;4099;52.684;9.918;2022-12-07T21:38:42;1.60;99.90
8114;DHT22;4099;52.684;9.918;2022-12-07T21:43:46;1.60;99.90
8114;DHT22;4099;52.684;9.918;2022-12-07T21:48:49;1.60;99.90
8114;DHT22;4099;52.684;9.918;2022-12-07T21:53:52;1.70;99.90
8114;DHT22;4099;52.684;9.918;2022-12-07T21:58:58;1.80;99.90
8114;DHT22;4099;52.684;9.918;2022-12-07T22:04:01;1.80;99.90
8114;DHT22;4099;52.684;9.918;2022-12-07T22:09:03;1.80;99.90
8114;DHT22;4099;52.684;9.918;2022-12-07T22:14:08;1.90;99.90
8114;DHT22;4099;52.684;9.918;2022-12-07T22:19:28;1.90;99.90
8114;DHT22;4099;52.684;9.918;2022-12-07T22:24:30;1.90;99.90
8114;DHT22;4099;52.684;9.918;2022-12-07T22:29:34;1.90;99.90
8114;DHT22;4099;52.684;9.918;2022-12-07T22:34:36;2.00;99.90
8114;DHT22;4099;52.684;9.918;2022-12-07T22:39:38;2.00;99.90
8114;DHT22;4099;52.684;9.918;2022-12-07T22:44:42;2.00;99.90
8114;DHT22;4099;52.684;9.918;2022-12-07T22:49:44;2.10;99.90
8114;DHT22;4099;52.684;9.918;2022-12-07T22:54:45;2.00;99.90
8114;DHT22;4099;52.684;9.918;2022-12-07T22:59:49;2.10;99.90
8114;DHT22;4099;52.684;9.918;2022-12-07T23:04:53;2.10;99.90
8114;DHT22;4099;52.684;9.918;2022-12-07T23:09:55;2.10;99.90
8114;DHT22;4099;52.684;9.918;2022-12-07T23:14:58;2.10;99.90
8114;DHT22;4099;52.684;9.918;2022-12-07T23:20:00;2.20;99.90
8114;DHT22;4099;52.684;9.918;2022-12-07T23:25:03;2.20;99.90
8114;DHT22;4099;52.684;9.918;2022-12-07T23:30:07;2.20;99.90
8114;DHT22;4099;52.684;9.918;2022-12-07T23:35:09;2.20;99.90
8114;DHT22;4099;52.684;9.918;2022-12-07T23:40:11;2.10;99.90
8114;DHT22;4099;52.684;9.918;2022-12-07T23:45:14;2.20;99.90
8114;DHT22;4099;52.684;9.918;2022-12-07T23:50:16;2.30;99.90
8114;DHT22;4099;52.684;9.918;2022-12-07T23:55:19;2.30;99.90
